sensor_id;sensor_type;location;lat;lon;timestamp;temperature;humidity
30134;DHT22;16946;49.984;10.672;2024-03-02T00:00:11;5.60;99.90
30134;DHT22;16946;49.984;10.672;2024-03-02T00:00:43;5.60;99.90
30134;DHT22;16946;49.984;10.672;2024-03-02T00:01:14;5.60;99.90
30134;DHT22;16946;49.984;10.672;2024-03-02T00:01:44;5.60;99.90
30134;DHT22;16946;49.984;10.672;2024-03-02T00:02:15;5.60;99.90
30134;DHT22;16946;49.984;10.672;2024-03-02T00:02:47;5.50;99.90
30134;DHT22;16946;49.984;10.672;2024-03-02T00:03:19;5.50;99.90
30134;DHT22;16946;49.984;10.672;2024-03-02T00:03:50;5.50;99.90
30134;DHT22;16946;49.984;10.672;2024-03-02T00:04:20;5.50;99.90
30134;DHT22;16946;49.984;10.672;2024-03-02T00:04:51;5.50;99.90
30134;DHT22;16946;49.984;10.672;2024-03-02T00:05:22;5.50;99.90
30134;DHT22;16946;49.984;10.672;2024-03-02T00:05:53;5.50;99.90
30134;DHT22;16946;49.984;10.672;2024-03-02T00:06:23;5.50;99.90
30134;DHT22;16946;49.984;10.672;2024-03-02T00:06:54;5.60;99.90
30134;DHT22;16946;49.984;10.672;2024-03-02T00:07:25;5.60;99.90
30134;DHT22;16946;49.984;10.672;2024-03-02T00:07:57;5.60;99.90
30134;DHT22;16946;49.984;10.672;2024-03-02T00:08:29;5.60;99.90
30134;DHT22;16946;49.984;10.672;2024-03-02T00:08:59;5.60;99.90
30134;DHT22;16946;49.984;10.672;2024-03-02T00:09:30;5.60;99.90
30134;DHT22;16946;49.984;10.672;2024-03-02T00:10:01;5.60;99.90
30134;DHT22;16946;49.984;10.672;2024-03-02T00:10:39;5.60;99.90
30134;DHT22;16946;49.984;10.672;2024-03-02T00:11:10;5.60;99.90
30134;DHT22;16946;49.984;10.672;2024-03-02T00:11:42;5.60;99.90
30134;DHT22;16946;49.984;10.672;2024-03-02T00:12:15;5.60;99.90
30134;DHT22;16946;49.984;10.672;2024-03-02T00:12:47;5.60;99.90
30134;DHT22;16946;49.984;10.672;2024-03-02T00:13:20;5.50;99.90
30134;DHT22;16946;49.984;10.672;2024-03-02T00:13:53;5.50;99.90
30134;DHT22;16946;49.984;10.672;2024-03-02T00:14:24;5.50;99.90
30134;DHT22;16946;49.984;10.672;2024-03-02T00:14:54;5.50;99.90
30134;DHT22;16946;49.984;10.672;2024-03-02T00:16:15;5.50;99.90
30134;DHT22;16946;49.984;10.672;2024-03-02T00:16:46;5.50;99.90
30134;DHT22;16946;49.984;10.672;2024-03-02T00:17:25;5.50;99.90
30134;DHT22;16946;49.984;10.672;2024-03-02T00:17:58;5.50;99.90
30134;DHT22;16946;49.984;10.672;2024-03-02T00:18:32;5.40;99.90
30134;DHT22;16946;49.984;10.672;2024-03-02T00:19:04;5.40;99.90
30134;DHT22;16946;49.984;10.672;2024-03-02T00:19:38;5.40;99.90
30134;DHT22;16946;49.984;10.672;2024-03-02T00:20:10;5.50;99.90
30134;DHT22;16946;49.984;10.672;2024-03-02T00:20:41;5.50;99.90
30134;DHT22;16946;49.984;10.672;2024-03-02T00:21:12;5.50;99.90
30134;DHT22;16946;49.984;10.672;2024-03-02T00:21:45;5.50;99.90
30134;DHT22;16946;49.984;10.672;2024-03-02T00:22:15;5.50;99.90
30134;DHT22;16946;49.984;10.672;2024-03-02T00:22:46;5.50;99.90
30134;DHT22;16946;49.984;10.672;2024-03-02T00:23:17;5.50;99.90
30134;DHT22;16946;49.984;10.672;2024-03-02T00:23:49;5.50;99.90
30134;DHT22;16946;49.984;10.672;2024-03-02T00:24:32;5.50;99.90
30134;DHT22;16946;49.984;10.672;2024-03-02T00:25:04;5.50;99.90
30134;DHT22;16946;49.984;10.672;2024-03-02T00:25:43;5.50;99.90
30134;DHT22;16946;49.984;10.672;2024-03-02T00:26:15;5.60;99.90
30134;DHT22;16946;49.984;10.672;2024-03-02T00:26:46;5.60;99.90
30134;DHT22;16946;49.984;10.672;2024-03-02T00:27:18;5.70;99.90
30134;DHT22;16946;49.984;10.672;2024-03-02T00:27:50;5.70;99.90
30134;DHT22;16946;49.984;10.672;2024-03-02T00:28:36;5.70;99.90
30134;DHT22;16946;49.984;10.672;2024-03-02T00:29:07;5.70;99.90
30134;DHT22;16946;49.984;10.672;2024-03-02T00:29:43;5.70;99.90
30134;DHT22;16946;49.984;10.672;2024-03-02T00:31:22;5.70;99.90
30134;DHT22;16946;49.984;10.672;2024-03-02T00:31:53;5.70;99.90
30134;DHT22;16946;49.984;10.672;2024-03-02T00:32:24;5.70;99.90
30134;DHT22;16946;49.984;10.672;2024-03-02T00:32:56;5.60;99.90
30134;DHT22;16946;49.984;10.672;2024-03-02T00:33:30;5.60;99.90
30134;DHT22;16946;49.984;10.672;2024-03-02T00:34:02;5.60;99.90
30134;DHT22;16946;49.984;10.672;2024-03-02T00:34:36;5.60;99.90
30134;DHT22;16946;49.984;10.672;2024-03-02T00:35:06;5.50;99.90
30134;DHT22;16946;49.984;10.672;2024-03-02T00:35:37;5.50;99.90
30134;DHT22;16946;49.984;10.672;2024-03-02T00:36:08;5.50;99.90
30134;DHT22;16946;49.984;10.672;2024-03-02T00:36:38;5.40;99.90
30134;DHT22;16946;49.984;10.672;2024-03-02T00:37:10;5.40;99.90
30134;DHT22;16946;49.984;10.672;2024-03-02T00:37:42;5.40;99.90
30134;DHT22;16946;49.984;10.672;2024-03-02T00:38:13;5.40;99.90
30134;DHT22;16946;49.984;10.672;2024-03-02T00:38:50;5.40;99.90
30134;DHT22;16946;49.984;10.672;2024-03-02T00:39:21;5.50;99.90
30134;DHT22;16946;49.984;10.672;2024-03-02T00:39:51;5.40;99.90
30134;DHT22;16946;49.984;10.672;2024-03-02T00:40:22;5.40;99.90
30134;DHT22;16946;49.984;10.672;2024-03-02T00:41:04;5.40;99.90
30134;DHT22;16946;49.984;10.672;2024-03-02T00:41:34;5.40;99.90
30134;DHT22;16946;49.984;10.672;2024-03-02T00:42:06;5.50;99.90
30134;DHT22;16946;49.984;10.672;2024-03-02T00:42:37;5.50;99.90
30134;DHT22;16946;49.984;10.672;2024-03-02T00:44:33;5.40;99.90
30134;DHT22;16946;49.984;10.672;2024-03-02T00:45:08;5.40;99.90
30134;DHT22;16946;49.984;10.672;2024-03-02T00:45:40;5.30;99.90
30134;DHT22;16946;49.984;10.672;2024-03-02T00:46:20;5.20;99.90
30134;DHT22;16946;49.984;10.672;2024-03-02T00:46:50;5.20;99.90
30134;DHT22;16946;49.984;10.672;2024-03-02T00:47:21;5.10;99.90
30134;DHT22;16946;49.984;10.672;2024-03-02T00:47:52;5.00;99.90
30134;DHT22;16946;49.984;10.672;2024-03-02T00:48:23;5.00;99.90
30134;DHT22;16946;49.984;10.672;2024-03-02T00:48:59;5.00;99.90
30134;DHT22;16946;49.984;10.672;2024-03-02T00:49:30;4.90;99.90
30134;DHT22;16946;49.984;10.672;2024-03-02T00:50:01;4.90;99.90
30134;DHT22;16946;49.984;10.672;2024-03-02T00:50:31;4.90;99.90
30134;DHT22;16946;49.984;10.672;2024-03-02T00:51:03;4.90;99.90
30134;DHT22;16946;49.984;10.672;2024-03-02T00:51:37;5.00;99.90
30134;DHT22;16946;49.984;10.672;2024-03-02T00:52:08;5.00;99.90
30134;DHT22;16946;49.984;10.672;2024-03-02T00:52:40;5.00;99.90
30134;DHT22;16946;49.984;10.672;2024-03-02T00:53:11;5.10;99.90
30134;DHT22;16946;49.984;10.672;2024-03-02T00:53:42;5.10;99.90
30134;DHT22;16946;49.984;10.672;2024-03-02T00:54:13;5.10;99.90
30134;DHT22;16946;49.984;10.672;2024-03-02T00:54:44;5.10;99.90
30134;DHT22;16946;49.984;10.672;2024-03-02T00:55:15;5.10;99.90
30134;DHT22;16946;49.984;10.672;2024-03-02T00:55:46;5.10;99.90
30134;DHT22;16946;49.984;10.672;2024-03-02T00:56:18;5.10;99.90
30134;DHT22;16946;49.984;10.672;2024-03-02T00:56:49;5.00;99.90
30134;DHT22;16946;49.984;10.672;2024-03-02T00:57:20;5.00;99.90
30134;DHT22;16946;49.984;10.672;2024-03-02T00:57:51;5.10;99.90
30134;DHT22;16946;49.984;10.672;2024-03-02T00:58:21;5.10;99.90
30134;DHT22;16946;49.984;10.672;2024-03-02T00:58:52;5.10;99.90
30134;DHT22;16946;49.984;10.672;2024-03-02T00:59:24;5.10;99.90
30134;DHT22;16946;49.984;10.672;2024-03-02T00:59:54;5.10;99.90
30134;DHT22;16946;49.984;10.672;2024-03-02T01:00:25;5.10;99.90
30134;DHT22;16946;49.984;10.672;2024-03-02T01:00:55;5.20;99.90
30134;DHT22;16946;49.984;10.672;2024-03-02T01:01:26;5.10;99.90
30134;DHT22;16946;49.984;10.672;2024-03-02T01:01:57;5.20;99.90
30134;DHT22;16946;49.984;10.672;2024-03-02T01:02:28;5.20;99.90
30134;DHT22;16946;49.984;10.672;2024-03-02T01:02:59;5.20;99.90
30134;DHT22;16946;49.984;10.672;2024-03-02T01:03:31;5.20;99.90
30134;DHT22;16946;49.984;10.672;2024-03-02T01:04:02;5.10;99.90
30134;DHT22;16946;49.984;10.672;2024-03-02T01:04:32;5.10;99.90
30134;DHT22;16946;49.984;10.672;2024-03-02T01:05:03;5.20;99.90
30134;DHT22;16946;49.984;10.672;2024-03-02T01:05:35;5.20;99.90
30134;DHT22;16946;49.984;10.672;2024-03-02T01:06:06;5.20;99.90
30134;DHT22;16946;49.984;10.672;2024-03-02T01:06:37;5.30;99.90
30134;DHT22;16946;49.984;10.672;2024-03-02T01:07:08;5.30;99.90
30134;DHT22;16946;49.984;10.672;2024-03-02T01:07:38;5.30;99.90
30134;DHT22;16946;49.984;10.672;2024-03-02T01:08:10;5.30;99.90
30134;DHT22;16946;49.984;10.672;2024-03-02T01:08:40;5.30;99.90
30134;DHT22;16946;49.984;10.672;2024-03-02T01:09:11;5.40;99.90
30134;DHT22;16946;49.984;10.672;2024-03-02T01:09:42;5.30;99.90
30134;DHT22;16946;49.984;10.672;2024-03-02T01:10:13;5.30;99.90
30134;DHT22;16946;49.984;10.672;2024-03-02T01:10:43;5.30;99.90
30134;DHT22;16946;49.984;10.672;2024-03-02T01:11:14;5.30;99.90
30134;DHT22;16946;49.984;10.672;2024-03-02T01:11:45;5.20;99.90
30134;DHT22;16946;49.984;10.672;2024-03-02T01:12:15;5.30;99.90
30134;DHT22;16946;49.984;10.672;2024-03-02T01:12:46;5.30;99.90
30134;DHT22;16946;49.984;10.672;2024-03-02T01:13:16;5.30;99.90
30134;DHT22;16946;49.984;10.672;2024-03-02T01:13:47;5.30;99.90
30134;DHT22;16946;49.984;10.672;2024-03-02T01:14:18;5.30;99.90
30134;DHT22;16946;49.984;10.672;2024-03-02T01:14:48;5.30;99.90
30134;DHT22;16946;49.984;10.672;2024-03-02T01:15:19;5.30;99.90
30134;DHT22;16946;49.984;10.672;2024-03-02T01:15:50;5.20;99.90
30134;DHT22;16946;49.984;10.672;2024-03-02T01:16:20;5.30;99.90
30134;DHT22;16946;49.984;10.672;2024-03-02T01:16:51;5.30;99.90
30134;DHT22;16946;49.984;10.672;2024-03-02T01:17:21;5.30;99.90
30134;DHT22;16946;49.984;10.672;2024-03-02T01:17:53;5.30;99.90
30134;DHT22;16946;49.984;10.672;2024-03-02T01:18:23;5.20;99.90
30134;DHT22;16946;49.984;10.672;2024-03-02T01:18:54;5.20;99.90
30134;DHT22;16946;49.984;10.672;2024-03-02T01:19:24;5.20;99.90
30134;DHT22;16946;49.984;10.672;2024-03-02T01:19:55;5.20;99.90
30134;DHT22;16946;49.984;10.672;2024-03-02T01:20:25;5.20;99.90
30134;DHT22;16946;49.984;10.672;2024-03-02T01:20:56;5.20;99.90
30134;DHT22;16946;49.984;10.672;2024-03-02T01:21:26;5.20;99.90
30134;DHT22;16946;49.984;10.672;2024-03-02T01:21:57;5.30;99.90
30134;DHT22;16946;49.984;10.672;2024-03-02T01:22:27;5.20;99.90
30134;DHT22;16946;49.984;10.672;2024-03-02T01:22:58;5.20;99.90
30134;DHT22;16946;49.984;10.672;2024-03-02T01:23:28;5.20;99.90
30134;DHT22;16946;49.984;10.672;2024-03-02T01:23:59;5.20;99.90
30134;DHT22;16946;49.984;10.672;2024-03-02T01:24:29;5.20;99.90
30134;DHT22;16946;49.984;10.672;2024-03-02T01:25:00;5.20;99.90
30134;DHT22;16946;49.984;10.672;2024-03-02T01:25:30;5.10;99.90
30134;DHT22;16946;49.984;10.672;2024-03-02T01:26:01;5.10;99.90
30134;DHT22;16946;49.984;10.672;2024-03-02T01:26:31;5.10;99.90
30134;DHT22;16946;49.984;10.672;2024-03-02T01:27:02;5.10;99.90
30134;DHT22;16946;49.984;10.672;2024-03-02T01:27:32;5.10;99.90
30134;DHT22;16946;49.984;10.672;2024-03-02T01:28:04;5.10;99.90
30134;DHT22;16946;49.984;10.672;2024-03-02T01:28:34;5.10;99.90
30134;DHT22;16946;49.984;10.672;2024-03-02T01:29:05;5.10;99.90
30134;DHT22;16946;49.984;10.672;2024-03-02T01:29:35;5.10;99.90
30134;DHT22;16946;49.984;10.672;2024-03-02T01:30:06;5.10;99.90
30134;DHT22;16946;49.984;10.672;2024-03-02T01:30:37;5.20;99.90
30134;DHT22;16946;49.984;10.672;2024-03-02T01:31:07;5.20;99.90
30134;DHT22;16946;49.984;10.672;2024-03-02T01:31:38;5.20;99.90
30134;DHT22;16946;49.984;10.672;2024-03-02T01:32:12;5.10;99.90
30134;DHT22;16946;49.984;10.672;2024-03-02T01:32:43;5.10;99.90
30134;DHT22;16946;49.984;10.672;2024-03-02T01:33:13;5.10;99.90
30134;DHT22;16946;49.984;10.672;2024-03-02T01:33:44;5.20;99.90
30134;DHT22;16946;49.984;10.672;2024-03-02T01:34:14;5.20;99.90
30134;DHT22;16946;49.984;10.672;2024-03-02T01:34:45;5.10;99.90
30134;DHT22;16946;49.984;10.672;2024-03-02T01:35:15;5.10;99.90
30134;DHT22;16946;49.984;10.672;2024-03-02T01:35:46;5.10;99.90
30134;DHT22;16946;49.984;10.672;2024-03-02T01:36:17;5.00;99.90
30134;DHT22;16946;49.984;10.672;2024-03-02T01:36:48;5.00;99.90
30134;DHT22;16946;49.984;10.672;2024-03-02T01:37:18;4.90;99.90
30134;DHT22;16946;49.984;10.672;2024-03-02T01:37:49;4.90;99.90
30134;DHT22;16946;49.984;10.672;2024-03-02T01:38:19;4.80;99.90
30134;DHT22;16946;49.984;10.672;2024-03-02T01:38:50;4.80;99.90
30134;DHT22;16946;49.984;10.672;2024-03-02T01:39:21;4.80;99.90
30134;DHT22;16946;49.984;10.672;2024-03-02T01:39:51;4.80;99.90
30134;DHT22;16946;49.984;10.672;2024-03-02T01:40:22;4.70;99.90
30134;DHT22;16946;49.984;10.672;2024-03-02T01:40:56;4.70;99.90
30134;DHT22;16946;49.984;10.672;2024-03-02T01:41:27;4.80;99.90
30134;DHT22;16946;49.984;10.672;2024-03-02T01:41:58;4.90;99.90
30134;DHT22;16946;49.984;10.672;2024-03-02T01:42:28;4.90;99.90
30134;DHT22;16946;49.984;10.672;2024-03-02T01:42:59;4.90;99.90
30134;DHT22;16946;49.984;10.672;2024-03-02T01:43:30;4.90;99.90
30134;DHT22;16946;49.984;10.672;2024-03-02T01:44:00;4.90;99.90
30134;DHT22;16946;49.984;10.672;2024-03-02T01:44:31;4.90;99.90
30134;DHT22;16946;49.984;10.672;2024-03-02T01:45:02;4.80;99.90
30134;DHT22;16946;49.984;10.672;2024-03-02T01:45:33;4.80;99.90
30134;DHT22;16946;49.984;10.672;2024-03-02T01:46:03;4.80;99.90
30134;DHT22;16946;49.984;10.672;2024-03-02T01:46:34;4.90;99.90
30134;DHT22;16946;49.984;10.672;2024-03-02T01:47:05;4.70;99.90
30134;DHT22;16946;49.984;10.672;2024-03-02T01:47:35;4.70;99.90
30134;DHT22;16946;49.984;10.672;2024-03-02T01:48:07;4.60;99.90
30134;DHT22;16946;49.984;10.672;2024-03-02T01:48:37;4.60;99.90
30134;DHT22;16946;49.984;10.672;2024-03-02T01:49:08;4.60;99.90
30134;DHT22;16946;49.984;10.672;2024-03-02T01:49:39;4.50;99.90
30134;DHT22;16946;49.984;10.672;2024-03-02T01:50:11;4.40;99.90
30134;DHT22;16946;49.984;10.672;2024-03-02T01:50:42;4.30;99.90
30134;DHT22;16946;49.984;10.672;2024-03-02T01:51:13;4.30;99.90
30134;DHT22;16946;49.984;10.672;2024-03-02T01:51:43;4.30;99.90
30134;DHT22;16946;49.984;10.672;2024-03-02T01:52:14;4.40;99.90
30134;DHT22;16946;49.984;10.672;2024-03-02T01:52:44;4.40;99.90
30134;DHT22;16946;49.984;10.672;2024-03-02T01:53:16;4.40;99.90
30134;DHT22;16946;49.984;10.672;2024-03-02T01:53:47;4.40;99.90
30134;DHT22;16946;49.984;10.672;2024-03-02T01:54:17;4.40;99.90
30134;DHT22;16946;49.984;10.672;2024-03-02T01:54:48;4.50;99.90
30134;DHT22;16946;49.984;10.672;2024-03-02T01:55:18;4.60;99.90
30134;DHT22;16946;49.984;10.672;2024-03-02T01:55:49;4.60;99.90
30134;DHT22;16946;49.984;10.672;2024-03-02T01:56:19;4.60;99.90
30134;DHT22;16946;49.984;10.672;2024-03-02T01:56:50;4.50;99.90
30134;DHT22;16946;49.984;10.672;2024-03-02T01:57:21;4.50;99.90
30134;DHT22;16946;49.984;10.672;2024-03-02T01:57:52;4.60;99.90
30134;DHT22;16946;49.984;10.672;2024-03-02T01:58:22;4.60;99.90
30134;DHT22;16946;49.984;10.672;2024-03-02T01:58:53;4.60;99.90
30134;DHT22;16946;49.984;10.672;2024-03-02T01:59:24;4.60;99.90
30134;DHT22;16946;49.984;10.672;2024-03-02T01:59:54;4.60;99.90
30134;DHT22;16946;49.984;10.672;2024-03-02T02:00:25;4.50;99.90
30134;DHT22;16946;49.984;10.672;2024-03-02T02:00:56;4.60;99.90
30134;DHT22;16946;49.984;10.672;2024-03-02T02:01:27;4.60;99.90
30134;DHT22;16946;49.984;10.672;2024-03-02T02:01:57;4.60;99.90
30134;DHT22;16946;49.984;10.672;2024-03-02T02:02:28;4.50;99.90
30134;DHT22;16946;49.984;10.672;2024-03-02T02:02:59;4.50;99.90
30134;DHT22;16946;49.984;10.672;2024-03-02T02:03:29;4.50;99.90
30134;DHT22;16946;49.984;10.672;2024-03-02T02:04:00;4.50;99.90
30134;DHT22;16946;49.984;10.672;2024-03-02T02:04:30;4.50;99.90
30134;DHT22;16946;49.984;10.672;2024-03-02T02:05:01;4.50;99.90
30134;DHT22;16946;49.984;10.672;2024-03-02T02:05:32;4.50;99.90
30134;DHT22;16946;49.984;10.672;2024-03-02T02:06:02;4.50;99.90
30134;DHT22;16946;49.984;10.672;2024-03-02T02:06:33;4.40;99.90
30134;DHT22;16946;49.984;10.672;2024-03-02T02:07:04;4.50;99.90
30134;DHT22;16946;49.984;10.672;2024-03-02T02:07:35;4.50;99.90
30134;DHT22;16946;49.984;10.672;2024-03-02T02:08:06;4.60;99.90
30134;DHT22;16946;49.984;10.672;2024-03-02T02:08:37;4.60;99.90
30134;DHT22;16946;49.984;10.672;2024-03-02T02:09:08;4.60;99.90
30134;DHT22;16946;49.984;10.672;2024-03-02T02:09:38;4.60;99.90
30134;DHT22;16946;49.984;10.672;2024-03-02T02:10:10;4.70;99.90
30134;DHT22;16946;49.984;10.672;2024-03-02T02:10:41;4.70;99.90
30134;DHT22;16946;49.984;10.672;2024-03-02T02:11:15;4.70;99.90
30134;DHT22;16946;49.984;10.672;2024-03-02T02:11:45;4.70;99.90
30134;DHT22;16946;49.984;10.672;2024-03-02T02:12:16;4.70;99.90
30134;DHT22;16946;49.984;10.672;2024-03-02T02:12:47;4.70;99.90
30134;DHT22;16946;49.984;10.672;2024-03-02T02:13:17;4.70;99.90
30134;DHT22;16946;49.984;10.672;2024-03-02T02:13:48;4.70;99.90
30134;DHT22;16946;49.984;10.672;2024-03-02T02:14:18;4.70;99.90
30134;DHT22;16946;49.984;10.672;2024-03-02T02:14:49;4.70;99.90
30134;DHT22;16946;49.984;10.672;2024-03-02T02:15:54;4.80;99.90
30134;DHT22;16946;49.984;10.672;2024-03-02T02:16:24;4.90;99.90
30134;DHT22;16946;49.984;10.672;2024-03-02T02:16:55;4.90;99.90
30134;DHT22;16946;49.984;10.672;2024-03-02T02:17:25;4.90;99.90
30134;DHT22;16946;49.984;10.672;2024-03-02T02:17:57;4.90;99.90
30134;DHT22;16946;49.984;10.672;2024-03-02T02:18:28;5.00;99.90
30134;DHT22;16946;49.984;10.672;2024-03-02T02:18:58;5.00;99.90
30134;DHT22;16946;49.984;10.672;2024-03-02T02:19:29;5.00;99.90
30134;DHT22;16946;49.984;10.672;2024-03-02T02:19:59;5.00;99.90
30134;DHT22;16946;49.984;10.672;2024-03-02T02:20:30;5.00;99.90
30134;DHT22;16946;49.984;10.672;2024-03-02T02:21:00;5.00;99.90
30134;DHT22;16946;49.984;10.672;2024-03-02T02:21:31;5.00;99.90
30134;DHT22;16946;49.984;10.672;2024-03-02T02:22:01;5.10;99.90
30134;DHT22;16946;49.984;10.672;2024-03-02T02:22:32;5.00;99.90
30134;DHT22;16946;49.984;10.672;2024-03-02T02:23:04;5.00;99.90
30134;DHT22;16946;49.984;10.672;2024-03-02T02:23:35;5.00;99.90
30134;DHT22;16946;49.984;10.672;2024-03-02T02:24:06;5.00;99.90
30134;DHT22;16946;49.984;10.672;2024-03-02T02:24:40;5.10;99.90
30134;DHT22;16946;49.984;10.672;2024-03-02T02:25:11;5.10;99.90
30134;DHT22;16946;49.984;10.672;2024-03-02T02:25:42;5.10;99.90
30134;DHT22;16946;49.984;10.672;2024-03-02T02:26:12;5.10;99.90
30134;DHT22;16946;49.984;10.672;2024-03-02T02:26:43;5.10;99.90
30134;DHT22;16946;49.984;10.672;2024-03-02T02:27:14;5.10;99.90
30134;DHT22;16946;49.984;10.672;2024-03-02T02:27:45;5.10;99.90
30134;DHT22;16946;49.984;10.672;2024-03-02T02:28:16;5.10;99.90
30134;DHT22;16946;49.984;10.672;2024-03-02T02:28:47;5.00;99.90
30134;DHT22;16946;49.984;10.672;2024-03-02T02:29:17;5.00;99.90
30134;DHT22;16946;49.984;10.672;2024-03-02T02:29:48;5.00;99.90
30134;DHT22;16946;49.984;10.672;2024-03-02T02:30:26;4.90;99.90
30134;DHT22;16946;49.984;10.672;2024-03-02T02:30:57;4.80;99.90
30134;DHT22;16946;49.984;10.672;2024-03-02T02:31:39;4.70;99.90
30134;DHT22;16946;49.984;10.672;2024-03-02T02:32:10;4.70;99.90
30134;DHT22;16946;49.984;10.672;2024-03-02T02:32:41;4.70;99.90
30134;DHT22;16946;49.984;10.672;2024-03-02T02:33:11;4.70;99.90
30134;DHT22;16946;49.984;10.672;2024-03-02T02:33:42;4.70;99.90
30134;DHT22;16946;49.984;10.672;2024-03-02T02:34:14;4.60;99.90
30134;DHT22;16946;49.984;10.672;2024-03-02T02:34:45;4.60;99.90
30134;DHT22;16946;49.984;10.672;2024-03-02T02:35:15;4.60;99.90
30134;DHT22;16946;49.984;10.672;2024-03-02T02:35:46;4.60;99.90
30134;DHT22;16946;49.984;10.672;2024-03-02T02:36:16;4.60;99.90
30134;DHT22;16946;49.984;10.672;2024-03-02T02:36:47;4.60;99.90
30134;DHT22;16946;49.984;10.672;2024-03-02T02:37:18;4.60;99.90
30134;DHT22;16946;49.984;10.672;2024-03-02T02:37:49;4.60;99.90
30134;DHT22;16946;49.984;10.672;2024-03-02T02:38:21;4.60;99.90
30134;DHT22;16946;49.984;10.672;2024-03-02T02:38:52;4.60;99.90
30134;DHT22;16946;49.984;10.672;2024-03-02T02:39:22;4.60;99.90
30134;DHT22;16946;49.984;10.672;2024-03-02T02:39:53;4.60;99.90
30134;DHT22;16946;49.984;10.672;2024-03-02T02:40:23;4.60;99.90
30134;DHT22;16946;49.984;10.672;2024-03-02T02:40:54;4.70;99.90
30134;DHT22;16946;49.984;10.672;2024-03-02T02:41:25;4.60;99.90
30134;DHT22;16946;49.984;10.672;2024-03-02T02:41:55;4.60;99.90
30134;DHT22;16946;49.984;10.672;2024-03-02T02:42:26;4.60;99.90
30134;DHT22;16946;49.984;10.672;2024-03-02T02:42:57;4.60;99.90
30134;DHT22;16946;49.984;10.672;2024-03-02T02:43:28;4.60;99.90
30134;DHT22;16946;49.984;10.672;2024-03-02T02:43:58;4.60;99.90
30134;DHT22;16946;49.984;10.672;2024-03-02T02:44:29;4.70;99.90
30134;DHT22;16946;49.984;10.672;2024-03-02T02:44:59;4.70;99.90
30134;DHT22;16946;49.984;10.672;2024-03-02T02:45:30;4.70;99.90
30134;DHT22;16946;49.984;10.672;2024-03-02T02:46:00;4.70;99.90
30134;DHT22;16946;49.984;10.672;2024-03-02T02:46:31;4.80;99.90
30134;DHT22;16946;49.984;10.672;2024-03-02T02:47:01;4.80;99.90
30134;DHT22;16946;49.984;10.672;2024-03-02T02:47:32;4.80;99.90
30134;DHT22;16946;49.984;10.672;2024-03-02T02:48:05;4.90;99.90
30134;DHT22;16946;49.984;10.672;2024-03-02T02:48:36;4.90;99.90
30134;DHT22;16946;49.984;10.672;2024-03-02T02:49:06;4.90;99.90
30134;DHT22;16946;49.984;10.672;2024-03-02T02:49:37;4.90;99.90
30134;DHT22;16946;49.984;10.672;2024-03-02T02:50:08;4.90;99.90
30134;DHT22;16946;49.984;10.672;2024-03-02T02:50:38;5.00;99.90
30134;DHT22;16946;49.984;10.672;2024-03-02T02:51:09;5.00;99.90
30134;DHT22;16946;49.984;10.672;2024-03-02T02:51:39;5.00;99.90
30134;DHT22;16946;49.984;10.672;2024-03-02T02:52:10;5.00;99.90
30134;DHT22;16946;49.984;10.672;2024-03-02T02:52:41;5.10;99.90
30134;DHT22;16946;49.984;10.672;2024-03-02T02:53:12;5.10;99.90
30134;DHT22;16946;49.984;10.672;2024-03-02T02:53:42;5.10;99.90
30134;DHT22;16946;49.984;10.672;2024-03-02T02:54:13;5.20;99.90
30134;DHT22;16946;49.984;10.672;2024-03-02T02:54:43;5.20;99.90
30134;DHT22;16946;49.984;10.672;2024-03-02T02:55:14;5.20;99.90
30134;DHT22;16946;49.984;10.672;2024-03-02T02:55:46;5.30;99.90
30134;DHT22;16946;49.984;10.672;2024-03-02T02:56:16;5.30;99.90
30134;DHT22;16946;49.984;10.672;2024-03-02T02:56:47;5.30;99.90
30134;DHT22;16946;49.984;10.672;2024-03-02T02:57:18;5.40;99.90
30134;DHT22;16946;49.984;10.672;2024-03-02T02:57:49;5.40;99.90
30134;DHT22;16946;49.984;10.672;2024-03-02T02:58:19;5.40;99.90
30134;DHT22;16946;49.984;10.672;2024-03-02T02:58:50;5.40;99.90
30134;DHT22;16946;49.984;10.672;2024-03-02T02:59:20;5.40;99.90
30134;DHT22;16946;49.984;10.672;2024-03-02T02:59:51;5.40;99.90
30134;DHT22;16946;49.984;10.672;2024-03-02T03:00:21;5.40;99.90
30134;DHT22;16946;49.984;10.672;2024-03-02T03:00:53;5.50;99.90
30134;DHT22;16946;49.984;10.672;2024-03-02T03:01:26;5.50;99.90
30134;DHT22;16946;49.984;10.672;2024-03-02T03:01:57;5.50;99.90
30134;DHT22;16946;49.984;10.672;2024-03-02T03:02:28;5.50;99.90
30134;DHT22;16946;49.984;10.672;2024-03-02T03:02:58;5.50;99.90
30134;DHT22;16946;49.984;10.672;2024-03-02T03:03:29;5.50;99.90
30134;DHT22;16946;49.984;10.672;2024-03-02T03:03:59;5.50;99.90
30134;DHT22;16946;49.984;10.672;2024-03-02T03:04:30;5.50;99.90
30134;DHT22;16946;49.984;10.672;2024-03-02T03:05:00;5.50;99.90
30134;DHT22;16946;49.984;10.672;2024-03-02T03:05:31;5.50;99.90
30134;DHT22;16946;49.984;10.672;2024-03-02T03:06:02;5.50;99.90
30134;DHT22;16946;49.984;10.672;2024-03-02T03:06:32;5.50;99.90
30134;DHT22;16946;49.984;10.672;2024-03-02T03:07:03;5.50;99.90
30134;DHT22;16946;49.984;10.672;2024-03-02T03:07:34;5.50;99.90
30134;DHT22;16946;49.984;10.672;2024-03-02T03:08:05;5.50;99.90
30134;DHT22;16946;49.984;10.672;2024-03-02T03:08:35;5.50;99.90
30134;DHT22;16946;49.984;10.672;2024-03-02T03:09:06;5.40;99.90
30134;DHT22;16946;49.984;10.672;2024-03-02T03:09:37;5.40;99.90
30134;DHT22;16946;49.984;10.672;2024-03-02T03:10:09;5.40;99.90
30134;DHT22;16946;49.984;10.672;2024-03-02T03:10:39;5.40;99.90
30134;DHT22;16946;49.984;10.672;2024-03-02T03:11:10;5.40;99.90
30134;DHT22;16946;49.984;10.672;2024-03-02T03:11:40;5.40;99.90
30134;DHT22;16946;49.984;10.672;2024-03-02T03:12:11;5.40;99.90
30134;DHT22;16946;49.984;10.672;2024-03-02T03:12:42;5.50;99.90
30134;DHT22;16946;49.984;10.672;2024-03-02T03:13:13;5.40;99.90
30134;DHT22;16946;49.984;10.672;2024-03-02T03:13:43;5.40;99.90
30134;DHT22;16946;49.984;10.672;2024-03-02T03:14:14;5.40;99.90
30134;DHT22;16946;49.984;10.672;2024-03-02T03:14:44;5.40;99.90
30134;DHT22;16946;49.984;10.672;2024-03-02T03:15:15;5.40;99.90
30134;DHT22;16946;49.984;10.672;2024-03-02T03:15:46;5.40;99.90
30134;DHT22;16946;49.984;10.672;2024-03-02T03:16:17;5.40;99.90
30134;DHT22;16946;49.984;10.672;2024-03-02T03:16:47;5.30;99.90
30134;DHT22;16946;49.984;10.672;2024-03-02T03:17:18;5.30;99.90
30134;DHT22;16946;49.984;10.672;2024-03-02T03:17:49;5.30;99.90
30134;DHT22;16946;49.984;10.672;2024-03-02T03:18:21;5.30;99.90
30134;DHT22;16946;49.984;10.672;2024-03-02T03:18:51;5.30;99.90
30134;DHT22;16946;49.984;10.672;2024-03-02T03:19:23;5.30;99.90
30134;DHT22;16946;49.984;10.672;2024-03-02T03:19:54;5.30;99.90
30134;DHT22;16946;49.984;10.672;2024-03-02T03:20:25;5.30;99.90
30134;DHT22;16946;49.984;10.672;2024-03-02T03:20:55;5.30;99.90